• Join FlightAware (Why Join?)
  • Login
  • US Flag 
10:21PM EDT


 

Airport Tracker/Info


-or-


 

Live Flight TrackerFlight Track Log ✈ EJA619 ✈ 21-Jan-2014 ✈ KTPA - KMCO

Flight Track Log - Related Links

Times and Time Zones

All times are in EST time to prevent confusion due to time zone crossing. See the EJA619 flight status page for this flight to view local times or setup timezone preferences in your user account.

Time Position Orientation Groundspeed Altitude Reporting Facility
EST Latitude Longitude Course Direction KTS MPH feet Rate Location/Type
06:17PM 28.0333 -82.5333 360° North 197 227 3,600  Level Tampa TRACON
06:18PM 28.0500 -82.4667 74° East 299 344 7,600 3,720 Climbing Tampa TRACON
06:18PM 28.0333 -82.3833 103° East 305 351 10,700 1,680 Climbing Tampa TRACON
06:20PM 28.0167 -82.2667 99° East 374 430 11,000  Climbing Tampa TRACON
06:22PM 28.0000 -81.9833 94° East 380 437 10,900  Descending Orlando TRACON
06:23PM 28.0500 -81.8833 60° Northeast 373 429 11,000  Climbing Orlando TRACON
06:24PM 28.1000 -81.7833 60° Northeast 374 430 10,900 -360 Descending Orlando TRACON
06:25PM 28.1333 -81.6667 72° East 350 403 10,300 -840 Descending Orlando TRACON
06:26PM 28.1500 -81.5667 79° East 325 374 9,300 -960 Descending Orlando TRACON
06:27PM 28.1667 -81.5000 74° East 304 350 8,500 -960 Descending Orlando TRACON
06:28PM 28.1833 -81.4000 79° East 269 310 7,500 -1,560 Descending Orlando TRACON
06:29PM 28.2333 -81.3500 41° Northeast 259 298 5,400 -2,220 Descending Orlando TRACON
06:30PM 28.2833 -81.3167 30° Northeast 184 212 3,100 -1,920 Descending Orlando TRACON
06:31PM 28.3333 -81.3167 360° North 156 180 1,800 -1,140 Descending Orlando TRACON
06:32PM 28.3667 -81.3167 360° North 140 161 900 -720 Descending Orlando TRACON
06:33PM 28.4000 -81.3167 360° North 122 140 300 -600 Descending Orlando TRACON
06:35PM 28.4167 -81.3000 16° North  Level FlightAware Approximate
06:42PM 28.4294 -81.3090 16° North  Level Estimated
06:43PM 28.4294 -81.3090 16° North  Level Estimated
06:44PM 28.4294 -81.3090 16° North  Level Estimated